Time,TemperatureF,DewpointF,PressureIn,WindDirection,WindDirectionDegrees,WindSpeedMPH,WindSpeedGustMPH,Humidity,HourlyPrecipIn,Conditions,Clouds,dailyrainin,SoftwareType,DateUTC
2013-01-07 00:10:00,34.5,29.6,30.09,West,270,1.7,-999.0,82,-99.99,,,0.00,Acu-Link.com,2013-01-07 05:10:00,
2013-01-07 00:26:00,34.5,29.6,30.10,NNW,337,2.2,-999.0,82,-99.99,,,0.00,Acu-Link.com,2013-01-07 05:26:00,
2013-01-07 00:41:00,34.0,29.4,30.09,WSW,247,1.7,-999.0,83,-99.99,,,0.00,Acu-Link.com,2013-01-07 05:41:00,
2013-01-07 00:56:00,33.8,29.2,30.10,WSW,247,1.1,-999.0,83,-99.99,,,0.00,Acu-Link.com,2013-01-07 05:56:00,
2013-01-07 01:11:00,34.0,29.1,30.10,WSW,247,2.2,-999.0,82,-99.99,,,0.00,Acu-Link.com,2013-01-07 06:11:00,
2013-01-07 01:27:00,34.3,29.1,30.12,West,270,2.2,-999.0,81,-99.99,,,0.00,Acu-Link.com,2013-01-07 06:27:00,
2013-01-07 01:42:00,34.5,29.3,30.12,West,270,2.2,-999.0,81,-99.99,,,0.00,Acu-Link.com,2013-01-07 06:42:00,
2013-01-07 01:57:00,34.2,29.3,30.14,West,270,1.7,-999.0,82,-99.99,,,0.00,Acu-Link.com,2013-01-07 06:57:00,
2013-01-07 02:12:00,34.2,29.0,30.14,West,270,1.1,-999.0,81,-99.99,,,0.00,Acu-Link.com,2013-01-07 07:12:00,
2013-01-07 02:27:00,34.2,29.6,30.15,WSW,247,1.7,-999.0,83,-99.99,,,0.00,Acu-Link.com,2013-01-07 07:27:00,
2013-01-07 02:43:00,34.5,29.0,30.14,West,270,2.2,-999.0,80,-99.99,,,0.00,Acu-Link.com,2013-01-07 07:43:00,
2013-01-07 02:58:00,34.9,29.1,30.16,SW,225,1.7,-999.0,79,-99.99,,,0.00,Acu-Link.com,2013-01-07 07:58:00,
2013-01-07 03:13:00,35.2,29.0,30.16,SW,225,2.2,-999.0,78,-99.99,,,0.00,Acu-Link.com,2013-01-07 08:13:00,
2013-01-07 03:28:00,35.2,29.4,30.16,WNW,292,2.2,-999.0,79,-99.99,,,0.00,Acu-Link.com,2013-01-07 08:28:00,
2013-01-07 03:44:00,35.2,29.4,30.16,West,270,1.7,-999.0,79,-99.99,,,0.00,Acu-Link.com,2013-01-07 08:44:00,
2013-01-07 03:59:00,35.4,29.2,30.17,West,270,0.0,-999.0,78,-99.99,,,0.00,Acu-Link.com,2013-01-07 08:59:00,
2013-01-07 04:14:00,35.6,29.4,30.18,WSW,247,1.7,-999.0,78,-99.99,,,0.00,Acu-Link.com,2013-01-07 09:14:00,
2013-01-07 04:29:00,35.2,29.7,30.18,WSW,247,1.1,-999.0,80,-99.99,,,0.00,Acu-Link.com,2013-01-07 09:29:00,
2013-01-07 04:45:00,34.9,29.7,30.19,WNW,292,1.7,-999.0,81,-99.99,,,0.00,Acu-Link.com,2013-01-07 09:45:00,
2013-01-07 05:00:00,34.9,29.7,30.20,SW,225,2.7,-999.0,81,-99.99,,,0.00,Acu-Link.com,2013-01-07 10:00:00,
2013-01-07 05:15:00,34.9,29.7,30.21,West,270,2.2,-999.0,81,-99.99,,,0.00,Acu-Link.com,2013-01-07 10:15:00,
2013-01-07 05:30:00,34.9,30.0,30.22,West,270,2.2,-999.0,82,-99.99,,,0.00,Acu-Link.com,2013-01-07 10:30:00,
2013-01-07 05:45:00,34.9,30.0,30.23,WSW,247,2.7,-999.0,82,-99.99,,,0.00,Acu-Link.com,2013-01-07 10:45:00,
2013-01-07 06:01:00,35.1,29.9,30.24,West,270,0.0,-999.0,81,-99.99,,,0.00,Acu-Link.com,2013-01-07 11:01:00,
2013-01-07 06:16:00,35.1,29.9,30.24,SW,225,1.7,-999.0,81,-99.99,,,0.00,Acu-Link.com,2013-01-07 11:16:00,
2013-01-07 06:31:00,34.9,29.7,30.25,West,270,1.7,-999.0,81,-99.99,,,0.00,Acu-Link.com,2013-01-07 11:31:00,
2013-01-07 06:46:00,34.9,30.0,30.25,West,270,2.2,-999.0,82,-99.99,,,0.00,Acu-Link.com,2013-01-07 11:46:00,
2013-01-07 07:01:00,34.9,30.0,30.25,WSW,247,1.7,-999.0,82,-99.99,,,0.00,Acu-Link.com,2013-01-07 12:01:00,
2013-01-07 07:17:00,34.7,29.8,30.26,WSW,247,0.0,-999.0,82,-99.99,,,0.00,Acu-Link.com,2013-01-07 12:17:00,
2013-01-07 07:32:00,34.2,29.9,30.27,West,270,1.1,-999.0,84,-99.99,,,0.00,Acu-Link.com,2013-01-07 12:32:00,
2013-01-07 07:47:00,33.8,29.8,30.28,West,270,1.1,-999.0,85,-99.99,,,0.00,Acu-Link.com,2013-01-07 12:47:00,
2013-01-07 08:03:00,33.8,29.5,30.29,West,270,1.7,-999.0,84,-99.99,,,0.00,Acu-Link.com,2013-01-07 13:03:00,
2013-01-07 08:18:00,34.0,30.0,30.30,WSW,247,0.0,-999.0,85,-99.99,,,0.00,Acu-Link.com,2013-01-07 13:18:00,
2013-01-07 08:33:00,34.3,29.4,30.31,West,270,1.7,-999.0,82,-99.99,,,0.00,Acu-Link.com,2013-01-07 13:33:00,
2013-01-07 08:48:00,35.6,30.1,30.32,SW,225,1.1,-999.0,80,-99.99,,,0.00,Acu-Link.com,2013-01-07 13:48:00,
2013-01-07 09:03:00,36.1,29.9,30.32,SW,225,0.0,-999.0,78,-99.99,,,0.00,Acu-Link.com,2013-01-07 14:03:00,
2013-01-07 09:19:00,37.4,29.2,30.33,West,270,1.7,-999.0,72,-99.99,,,0.00,Acu-Link.com,2013-01-07 14:19:00,
2013-01-07 09:34:00,38.3,28.3,30.34,SSW,202,0.0,-999.0,67,-99.99,,,0.00,Acu-Link.com,2013-01-07 14:34:00,
2013-01-07 09:49:00,38.5,25.8,30.35,SW,225,2.2,-999.0,60,-99.99,,,0.00,Acu-Link.com,2013-01-07 14:49:00,
2013-01-07 10:04:00,38.8,25.3,30.36,West,270,2.2,-999.0,58,-99.99,,,0.00,Acu-Link.com,2013-01-07 15:04:00,
2013-01-07 10:19:00,39.2,25.7,30.36,West,270,2.2,-999.0,58,-99.99,,,0.00,Acu-Link.com,2013-01-07 15:19:00,
2013-01-07 10:35:00,38.3,25.6,30.36,West,270,1.1,-999.0,60,-99.99,,,0.00,Acu-Link.com,2013-01-07 15:35:00,
2013-01-07 10:50:00,38.8,25.7,30.36,NW,315,0.0,-999.0,59,-99.99,,,0.00,Acu-Link.com,2013-01-07 15:50:00,
2013-01-07 11:05:00,38.7,25.6,30.36,ENE,67,1.1,-999.0,59,-99.99,,,0.00,Acu-Link.com,2013-01-07 16:05:00,
2013-01-07 11:20:00,39.4,25.0,30.35,WSW,247,2.2,-999.0,56,-99.99,,,0.00,Acu-Link.com,2013-01-07 16:20:00,
2013-01-07 11:35:00,39.4,25.5,30.35,West,270,1.1,-999.0,57,-99.99,,,0.00,Acu-Link.com,2013-01-07 16:35:00,
2013-01-07 11:51:00,39.2,26.1,30.36,WSW,247,3.2,-999.0,59,-99.99,,,0.00,Acu-Link.com,2013-01-07 16:51:00,
2013-01-07 12:06:00,40.5,25.6,30.35,West,270,3.2,-999.0,55,-99.99,,,0.00,Acu-Link.com,2013-01-07 17:06:00,
2013-01-07 12:21:00,42.3,25.9,30.35,SSE,157,1.7,-999.0,52,-99.99,,,0.00,Acu-Link.com,2013-01-07 17:21:00,
2013-01-07 12:36:00,40.3,25.0,30.34,ESE,112,1.7,-999.0,54,-99.99,,,0.00,Acu-Link.com,2013-01-07 17:36:00,
2013-01-07 12:52:00,39.2,24.4,30.35,SW,225,0.0,-999.0,55,-99.99,,,0.00,Acu-Link.com,2013-01-07 17:52:00,
2013-01-07 13:07:00,40.1,24.8,30.35,WSW,247,1.7,-999.0,54,-99.99,,,0.00,Acu-Link.com,2013-01-07 18:07:00,
2013-01-07 13:22:00,39.4,24.6,30.35,SSW,202,0.0,-999.0,55,-99.99,,,0.00,Acu-Link.com,2013-01-07 18:22:00,
2013-01-07 13:37:00,39.4,24.6,30.36,SSE,157,1.7,-999.0,55,-99.99,,,0.00,Acu-Link.com,2013-01-07 18:37:00,
2013-01-07 13:52:00,38.8,24.5,30.36,North,0,2.2,-999.0,56,-99.99,,,0.00,Acu-Link.com,2013-01-07 18:52:00,
2013-01-07 14:08:00,38.3,24.4,30.35,WSW,247,4.7,-999.0,57,-99.99,,,0.00,Acu-Link.com,2013-01-07 19:08:00,
2013-01-07 14:23:00,39.2,25.3,30.35,West,270,4.2,-999.0,57,-99.99,,,0.00,Acu-Link.com,2013-01-07 19:23:00,
2013-01-07 14:38:00,38.8,24.9,30.35,West,270,5.8,-999.0,57,-99.99,,,0.00,Acu-Link.com,2013-01-07 19:38:00,
2013-01-07 14:53:00,38.1,24.6,30.36,West,270,3.7,-999.0,58,-99.99,,,0.00,Acu-Link.com,2013-01-07 19:53:00,
2013-01-07 15:08:00,37.0,23.6,30.35,West,270,3.2,-999.0,58,-99.99,,,0.00,Acu-Link.com,2013-01-07 20:08:00,
2013-01-07 15:24:00,36.9,23.9,30.35,WSW,247,3.2,-999.0,59,-99.99,,,0.00,Acu-Link.com,2013-01-07 20:24:00,
2013-01-07 15:39:00,36.3,23.8,30.35,SSW,202,1.7,-999.0,60,-99.99,,,0.00,Acu-Link.com,2013-01-07 20:39:00,
2013-01-07 15:54:00,36.7,23.7,30.35,WSW,247,1.7,-999.0,59,-99.99,,,0.00,Acu-Link.com,2013-01-07 20:54:00,
2013-01-07 16:09:00,37.0,24.0,30.35,West,270,2.7,-999.0,59,-99.99,,,0.00,Acu-Link.com,2013-01-07 21:09:00,
2013-01-07 16:24:00,35.6,23.5,30.35,West,270,2.2,-999.0,61,-99.99,,,0.00,Acu-Link.com,2013-01-07 21:24:00,
2013-01-07 16:40:00,34.2,24.0,30.35,WNW,292,1.7,-999.0,66,-99.99,,,0.00,Acu-Link.com,2013-01-07 21:40:00,
2013-01-07 16:55:00,32.7,22.6,30.35,NNW,337,0.0,-999.0,66,-99.99,,,0.00,Acu-Link.com,2013-01-07 21:55:00,
2013-01-07 17:10:00,31.3,24.3,30.36,West,270,0.0,-999.0,75,-99.99,,,0.00,Acu-Link.com,2013-01-07 22:10:00,
2013-01-07 17:25:00,29.7,23.4,30.35,West,270,0.0,-999.0,77,-99.99,,,0.00,Acu-Link.com,2013-01-07 22:25:00,
2013-01-07 17:41:00,28.2,22.5,30.36,WNW,292,0.0,-999.0,79,-99.99,,,0.00,Acu-Link.com,2013-01-07 22:41:00,
2013-01-07 17:56:00,27.9,23.1,30.36,WNW,292,1.1,-999.0,82,-99.99,,,0.00,Acu-Link.com,2013-01-07 22:56:00,
2013-01-07 18:11:00,27.5,22.4,30.36,WNW,292,1.7,-999.0,81,-99.99,,,0.00,Acu-Link.com,2013-01-07 23:11:00,
2013-01-07 18:26:00,27.7,22.6,30.36,WNW,292,0.0,-999.0,81,-99.99,,,0.00,Acu-Link.com,2013-01-07 23:26:00,
2013-01-07 18:41:00,27.5,23.0,30.36,NNW,337,0.0,-999.0,83,-99.99,,,0.00,Acu-Link.com,2013-01-07 23:41:00,
2013-01-07 18:57:00,27.3,23.1,30.36,NNE,22,0.0,-999.0,84,-99.99,,,0.00,Acu-Link.com,2013-01-07 23:57:00,
2013-01-07 19:12:00,27.3,23.1,30.36,NNE,22,0.0,-999.0,84,-99.99,,,0.00,Acu-Link.com,2013-01-08 00:12:00,
2013-01-07 19:27:00,27.1,22.9,30.36,NW,315,0.0,-999.0,84,-99.99,,,0.00,Acu-Link.com,2013-01-08 00:27:00,
2013-01-07 19:42:00,26.6,23.0,30.36,West,270,1.1,-999.0,86,-99.99,,,0.00,Acu-Link.com,2013-01-08 00:42:00,
2013-01-07 19:57:00,25.9,22.6,30.35,WNW,292,0.0,-999.0,87,-99.99,,,0.00,Acu-Link.com,2013-01-08 00:57:00,
2013-01-07 20:13:00,25.3,22.3,30.35,West,270,1.7,-999.0,88,-99.99,,,0.00,Acu-Link.com,2013-01-08 01:13:00,
2013-01-07 20:28:00,25.0,22.0,30.35,West,270,0.0,-999.0,88,-99.99,,,0.00,Acu-Link.com,2013-01-08 01:28:00,
2013-01-07 20:43:00,24.6,22.1,30.33,WNW,292,1.7,-999.0,90,-99.99,,,0.00,Acu-Link.com,2013-01-08 01:43:00,
2013-01-07 20:58:00,24.1,21.9,30.34,West,270,0.0,-999.0,91,-99.99,,,0.00,Acu-Link.com,2013-01-08 01:58:00,
2013-01-07 21:13:00,24.1,21.9,30.33,WNW,292,0.0,-999.0,91,-99.99,,,0.00,Acu-Link.com,2013-01-08 02:13:00,
2013-01-07 21:29:00,23.5,21.3,30.33,NW,315,0.0,-999.0,91,-99.99,,,0.00,Acu-Link.com,2013-01-08 02:29:00,
2013-01-07 21:44:00,23.4,21.4,30.33,WNW,292,0.0,-999.0,92,-99.99,,,0.00,Acu-Link.com,2013-01-08 02:44:00,
2013-01-07 21:59:00,22.8,21.1,30.34,West,270,0.0,-999.0,93,-99.99,,,0.00,Acu-Link.com,2013-01-08 02:59:00,
2013-01-07 22:14:00,22.6,21.1,30.34,WSW,247,0.0,-999.0,94,-99.99,,,0.00,Acu-Link.com,2013-01-08 03:14:00,
2013-01-07 22:29:00,22.6,21.1,30.34,WSW,247,0.0,-999.0,94,-99.99,,,0.00,Acu-Link.com,2013-01-08 03:29:00,
2013-01-07 22:45:00,22.1,20.9,30.33,WNW,292,1.7,-999.0,95,-99.99,,,0.00,Acu-Link.com,2013-01-08 03:45:00,
2013-01-07 23:00:00,21.9,20.7,30.33,WNW,292,0.0,-999.0,95,-99.99,,,0.00,Acu-Link.com,2013-01-08 04:00:00,
2013-01-07 23:15:00,21.9,20.9,30.33,WNW,292,0.0,-999.0,96,-99.99,,,0.00,Acu-Link.com,2013-01-08 04:15:00,
2013-01-07 23:30:00,21.9,20.7,30.33,WNW,292,1.1,-999.0,95,-99.99,,,0.00,Acu-Link.com,2013-01-08 04:30:00,
2013-01-07 23:46:00,21.4,20.2,30.31,WNW,292,0.0,-999.0,95,-99.99,,,0.00,Acu-Link.com,2013-01-08 04:46:00,